sensor_id;sensor_type;location;lat;lon;timestamp;pressure;altitude;pressure_sealevel;temperature;humidity
42411;BME280;28056;51.112;0.984;2022-09-01T00:04:49;101126.25;;;18.79;55.14
42411;BME280;28056;51.112;0.984;2022-09-01T00:07:16;101121.76;;;18.61;56.23
42411;BME280;28056;51.112;0.984;2022-09-01T00:09:44;101123.27;;;18.88;55.25
42411;BME280;28056;51.112;0.984;2022-09-01T00:12:11;101126.04;;;19.15;54.09
42411;BME280;28056;51.112;0.984;2022-09-01T00:14:40;101119.60;;;18.71;55.32
42411;BME280;28056;51.112;0.984;2022-09-01T00:17:10;101122.29;;;18.42;56.36
42411;BME280;28056;51.112;0.984;2022-09-01T00:19:38;101124.80;;;18.26;57.01
42411;BME280;28056;51.112;0.984;2022-09-01T00:22:07;101124.47;;;18.11;56.85
42411;BME280;28056;51.112;0.984;2022-09-01T00:24:35;101120.30;;;18.42;56.62
42411;BME280;28056;51.112;0.984;2022-09-01T00:27:03;101122.19;;;18.45;57.06
42411;BME280;28056;51.112;0.984;2022-09-01T00:29:30;101118.91;;;19.25;54.41
42411;BME280;28056;51.112;0.984;2022-09-01T00:31:58;101117.60;;;18.92;55.20
42411;BME280;28056;51.112;0.984;2022-09-01T00:34:25;101115.97;;;18.90;55.05
42411;BME280;28056;51.112;0.984;2022-09-01T00:36:53;101114.85;;;18.56;55.54
42411;BME280;28056;51.112;0.984;2022-09-01T00:39:21;101116.15;;;19.40;54.55
42411;BME280;28056;51.112;0.984;2022-09-01T00:41:48;101111.68;;;19.70;53.32
42411;BME280;28056;51.112;0.984;2022-09-01T00:44:19;101114.88;;;18.17;55.84
42411;BME280;28056;51.112;0.984;2022-09-01T00:46:48;101109.22;;;18.68;55.48
42411;BME280;28056;51.112;0.984;2022-09-01T00:49:19;101103.98;;;19.00;54.76
42411;BME280;28056;51.112;0.984;2022-09-01T00:51:51;101101.34;;;19.21;54.39
42411;BME280;28056;51.112;0.984;2022-09-01T00:54:22;101098.90;;;18.65;55.38
42411;BME280;28056;51.112;0.984;2022-09-01T00:56:50;101096.85;;;18.98;55.22
42411;BME280;28056;51.112;0.984;2022-09-01T00:59:20;101093.99;;;19.16;54.52
42411;BME280;28056;51.112;0.984;2022-09-01T01:01:49;101092.41;;;19.08;53.95
42411;BME280;28056;51.112;0.984;2022-09-01T01:04:16;101092.68;;;18.12;56.39
42411;BME280;28056;51.112;0.984;2022-09-01T01:06:46;101089.84;;;18.88;54.53
42411;BME280;28056;51.112;0.984;2022-09-01T01:09:14;101088.93;;;18.63;56.20
42411;BME280;28056;51.112;0.984;2022-09-01T01:11:42;101093.20;;;18.99;54.86
42411;BME280;28056;51.112;0.984;2022-09-01T01:14:10;101093.47;;;18.43;56.40
42411;BME280;28056;51.112;0.984;2022-09-01T01:16:39;101092.45;;;18.11;56.76
42411;BME280;28056;51.112;0.984;2022-09-01T01:19:07;101092.59;;;19.16;55.16
42411;BME280;28056;51.112;0.984;2022-09-01T01:21:39;101093.09;;;18.21;56.09
42411;BME280;28056;51.112;0.984;2022-09-01T01:24:20;101090.07;;;18.41;56.45
42411;BME280;28056;51.112;0.984;2022-09-01T01:26:48;101085.24;;;18.84;55.68
42411;BME280;28056;51.112;0.984;2022-09-01T01:29:16;101080.33;;;19.02;55.08
42411;BME280;28056;51.112;0.984;2022-09-01T01:31:44;101084.10;;;17.84;56.98
42411;BME280;28056;51.112;0.984;2022-09-01T01:34:12;101079.28;;;18.83;55.77
42411;BME280;28056;51.112;0.984;2022-09-01T01:36:40;101083.46;;;18.27;56.70
42411;BME280;28056;51.112;0.984;2022-09-01T01:39:13;101076.08;;;18.66;55.88
42411;BME280;28056;51.112;0.984;2022-09-01T01:41:43;101075.96;;;17.00;59.25
42411;BME280;28056;51.112;0.984;2022-09-01T01:44:12;101072.44;;;18.25;56.15
42411;BME280;28056;51.112;0.984;2022-09-01T01:46:44;101075.31;;;17.98;57.59
42411;BME280;28056;51.112;0.984;2022-09-01T01:49:14;101068.18;;;17.77;57.44
42411;BME280;28056;51.112;0.984;2022-09-01T01:51:42;101068.53;;;18.73;55.56
42411;BME280;28056;51.112;0.984;2022-09-01T01:54:10;101067.87;;;18.88;55.28
42411;BME280;28056;51.112;0.984;2022-09-01T01:56:37;101068.71;;;18.46;56.32
42411;BME280;28056;51.112;0.984;2022-09-01T01:59:05;101062.47;;;18.80;55.30
42411;BME280;28056;51.112;0.984;2022-09-01T02:01:32;101062.20;;;19.30;54.72
42411;BME280;28056;51.112;0.984;2022-09-01T02:04:00;101062.30;;;18.17;56.66
42411;BME280;28056;51.112;0.984;2022-09-01T02:06:32;101060.38;;;19.51;54.16
42411;BME280;28056;51.112;0.984;2022-09-01T02:09:00;101062.43;;;19.28;53.80
42411;BME280;28056;51.112;0.984;2022-09-01T02:11:28;101064.54;;;19.62;53.04
42411;BME280;28056;51.112;0.984;2022-09-01T02:13:56;101065.56;;;18.84;54.79
42411;BME280;28056;51.112;0.984;2022-09-01T02:16:26;101061.53;;;19.16;54.27
42411;BME280;28056;51.112;0.984;2022-09-01T02:18:54;101063.12;;;18.57;54.98
42411;BME280;28056;51.112;0.984;2022-09-01T02:21:23;101060.44;;;18.90;53.87
42411;BME280;28056;51.112;0.984;2022-09-01T02:23:52;101061.29;;;19.13;53.96
42411;BME280;28056;51.112;0.984;2022-09-01T02:26:20;101056.52;;;18.92;53.98
42411;BME280;28056;51.112;0.984;2022-09-01T02:28:48;101052.46;;;18.88;54.09
42411;BME280;28056;51.112;0.984;2022-09-01T02:31:15;101052.83;;;19.43;52.86
42411;BME280;28056;51.112;0.984;2022-09-01T02:33:42;101055.90;;;19.87;51.62
42411;BME280;28056;51.112;0.984;2022-09-01T02:36:12;101058.52;;;20.09;51.13
42411;BME280;28056;51.112;0.984;2022-09-01T02:38:41;101058.12;;;20.43;50.18
42411;BME280;28056;51.112;0.984;2022-09-01T02:41:08;101059.61;;;20.17;50.98
42411;BME280;28056;51.112;0.984;2022-09-01T02:43:36;101055.59;;;18.90;53.44
42411;BME280;28056;51.112;0.984;2022-09-01T02:46:03;101052.95;;;19.19;52.35
42411;BME280;28056;51.112;0.984;2022-09-01T02:48:33;101052.08;;;19.70;51.27
42411;BME280;28056;51.112;0.984;2022-09-01T02:51:02;101046.84;;;19.31;52.33
42411;BME280;28056;51.112;0.984;2022-09-01T02:53:31;101048.27;;;19.99;50.69
42411;BME280;28056;51.112;0.984;2022-09-01T02:55:59;101041.16;;;18.82;52.96
42411;BME280;28056;51.112;0.984;2022-09-01T02:58:28;101042.47;;;18.53;54.55
42411;BME280;28056;51.112;0.984;2022-09-01T03:00:56;101040.66;;;18.95;53.29
42411;BME280;28056;51.112;0.984;2022-09-01T03:03:24;101039.78;;;19.28;52.27
42411;BME280;28056;51.112;0.984;2022-09-01T03:05:52;101038.84;;;18.70;53.75
42411;BME280;28056;51.112;0.984;2022-09-01T03:08:21;101035.52;;;19.65;51.97
42411;BME280;28056;51.112;0.984;2022-09-01T03:10:48;101034.92;;;19.50;52.20
42411;BME280;28056;51.112;0.984;2022-09-01T03:13:18;101034.34;;;19.49;52.08
42411;BME280;28056;51.112;0.984;2022-09-01T03:15:47;101032.29;;;19.18;53.16
42411;BME280;28056;51.112;0.984;2022-09-01T03:18:15;101031.34;;;18.94;53.08
42411;BME280;28056;51.112;0.984;2022-09-01T03:20:44;101035.53;;;19.39;52.28
42411;BME280;28056;51.112;0.984;2022-09-01T03:23:14;101035.22;;;19.31;51.76
42411;BME280;28056;51.112;0.984;2022-09-01T03:25:44;101033.84;;;18.86;52.57
42411;BME280;28056;51.112;0.984;2022-09-01T03:28:12;101032.69;;;18.65;53.23
42411;BME280;28056;51.112;0.984;2022-09-01T03:30:44;101028.38;;;18.82;52.12
42411;BME280;28056;51.112;0.984;2022-09-01T03:33:12;101032.26;;;18.91;52.00
42411;BME280;28056;51.112;0.984;2022-09-01T03:35:40;101034.51;;;19.02;51.41
42411;BME280;28056;51.112;0.984;2022-09-01T03:38:07;101038.92;;;19.88;50.31
42411;BME280;28056;51.112;0.984;2022-09-01T03:40:35;101039.62;;;19.13;50.60
42411;BME280;28056;51.112;0.984;2022-09-01T03:43:06;101037.43;;;18.80;50.86
42411;BME280;28056;51.112;0.984;2022-09-01T03:45:34;101036.43;;;18.87;51.34
42411;BME280;28056;51.112;0.984;2022-09-01T03:48:02;101036.17;;;19.50;50.27
42411;BME280;28056;51.112;0.984;2022-09-01T03:50:30;101036.43;;;20.21;48.63
42411;BME280;28056;51.112;0.984;2022-09-01T03:52:58;101035.63;;;19.69;49.17
42411;BME280;28056;51.112;0.984;2022-09-01T03:55:27;101032.82;;;19.32;50.37
42411;BME280;28056;51.112;0.984;2022-09-01T03:57:59;101030.93;;;19.01;50.13
42411;BME280;28056;51.112;0.984;2022-09-01T04:00:28;101035.03;;;19.82;49.04
42411;BME280;28056;51.112;0.984;2022-09-01T04:02:57;101034.77;;;19.45;49.52
42411;BME280;28056;51.112;0.984;2022-09-01T04:05:27;101030.67;;;19.46;49.66
42411;BME280;28056;51.112;0.984;2022-09-01T04:07:58;101030.07;;;19.77;48.84
42411;BME280;28056;51.112;0.984;2022-09-01T04:10:26;101022.89;;;19.17;49.87
42411;BME280;28056;51.112;0.984;2022-09-01T04:12:53;101021.78;;;19.63;49.33
42411;BME280;28056;51.112;0.984;2022-09-01T04:15:21;101018.49;;;19.01;50.35
42411;BME280;28056;51.112;0.984;2022-09-01T04:17:49;101015.67;;;19.00;50.87
42411;BME280;28056;51.112;0.984;2022-09-01T04:20:16;101014.32;;;19.50;50.53
42411;BME280;28056;51.112;0.984;2022-09-01T04:22:44;101010.65;;;19.41;49.94
42411;BME280;28056;51.112;0.984;2022-09-01T04:25:12;101007.63;;;18.98;50.23
42411;BME280;28056;51.112;0.984;2022-09-01T04:27:39;101008.62;;;18.86;50.63
42411;BME280;28056;51.112;0.984;2022-09-01T04:30:09;101010.18;;;20.06;48.73
42411;BME280;28056;51.112;0.984;2022-09-01T04:32:37;101011.56;;;19.79;48.60
42411;BME280;28056;51.112;0.984;2022-09-01T04:35:05;101005.70;;;19.44;49.34
42411;BME280;28056;51.112;0.984;2022-09-01T04:37:33;101003.87;;;18.81;50.22
42411;BME280;28056;51.112;0.984;2022-09-01T04:40:01;101001.28;;;18.56;50.82
42411;BME280;28056;51.112;0.984;2022-09-01T04:42:30;101001.42;;;19.55;48.79
42411;BME280;28056;51.112;0.984;2022-09-01T04:44:58;101001.28;;;19.42;48.78
42411;BME280;28056;51.112;0.984;2022-09-01T04:47:26;100998.10;;;19.01;49.87
42411;BME280;28056;51.112;0.984;2022-09-01T04:49:54;100993.44;;;19.45;48.70
42411;BME280;28056;51.112;0.984;2022-09-01T04:52:21;100984.83;;;18.64;50.12
42411;BME280;28056;51.112;0.984;2022-09-01T04:54:49;100984.64;;;19.17;49.58
42411;BME280;28056;51.112;0.984;2022-09-01T04:57:17;100977.64;;;18.21;51.13
42411;BME280;28056;51.112;0.984;2022-09-01T04:59:44;100973.60;;;19.11;49.83
42411;BME280;28056;51.112;0.984;2022-09-01T05:02:12;100973.36;;;18.26;51.57
42411;BME280;28056;51.112;0.984;2022-09-01T05:04:39;100969.14;;;18.38;51.51
42411;BME280;28056;51.112;0.984;2022-09-01T05:07:07;100971.07;;;18.78;50.11
42411;BME280;28056;51.112;0.984;2022-09-01T05:09:36;100969.47;;;18.94;50.43
42411;BME280;28056;51.112;0.984;2022-09-01T05:12:05;100970.24;;;18.53;51.35
42411;BME280;28056;51.112;0.984;2022-09-01T05:14:32;100974.45;;;18.39;51.77
42411;BME280;28056;51.112;0.984;2022-09-01T05:17:00;100976.79;;;18.25;51.88
42411;BME280;28056;51.112;0.984;2022-09-01T05:19:27;100975.12;;;18.14;52.14
42411;BME280;28056;51.112;0.984;2022-09-01T05:21:55;100974.94;;;19.28;50.10
42411;BME280;28056;51.112;0.984;2022-09-01T05:24:23;100976.90;;;18.96;50.21
42411;BME280;28056;51.112;0.984;2022-09-01T05:26:51;100974.80;;;19.15;50.52
42411;BME280;28056;51.112;0.984;2022-09-01T05:29:18;100976.77;;;18.52;51.51
42411;BME280;28056;51.112;0.984;2022-09-01T05:31:47;100976.97;;;18.84;51.35
42411;BME280;28056;51.112;0.984;2022-09-01T05:34:15;100981.05;;;18.86;51.37
42411;BME280;28056;51.112;0.984;2022-09-01T05:36:44;100983.52;;;19.72;49.61
42411;BME280;28056;51.112;0.984;2022-09-01T05:39:11;100985.13;;;19.37;49.88
42411;BME280;28056;51.112;0.984;2022-09-01T05:41:40;100990.13;;;20.03;48.60
42411;BME280;28056;51.112;0.984;2022-09-01T05:44:08;100993.60;;;20.01;49.21
42411;BME280;28056;51.112;0.984;2022-09-01T05:46:37;100990.04;;;19.31;50.11
42411;BME280;28056;51.112;0.984;2022-09-01T05:49:06;100985.14;;;19.05;51.14
42411;BME280;28056;51.112;0.984;2022-09-01T05:51:34;100989.59;;;18.77;51.32
42411;BME280;28056;51.112;0.984;2022-09-01T05:54:03;100981.38;;;19.30;50.21
42411;BME280;28056;51.112;0.984;2022-09-01T05:56:31;100986.85;;;17.95;53.01
42411;BME280;28056;51.112;0.984;2022-09-01T05:59:00;100986.66;;;18.75;51.28
42411;BME280;28056;51.112;0.984;2022-09-01T06:01:28;100984.83;;;18.96;51.56
42411;BME280;28056;51.112;0.984;2022-09-01T06:03:56;100989.72;;;19.56;49.95
42411;BME280;28056;51.112;0.984;2022-09-01T06:06:26;100985.51;;;18.85;51.67
42411;BME280;28056;51.112;0.984;2022-09-01T06:08:54;100989.30;;;19.28;50.63
42411;BME280;28056;51.112;0.984;2022-09-01T06:11:22;100991.61;;;18.38;52.04
42411;BME280;28056;51.112;0.984;2022-09-01T06:13:49;100992.60;;;20.10;49.43
42411;BME280;28056;51.112;0.984;2022-09-01T06:16:17;100985.76;;;18.58;52.34
42411;BME280;28056;51.112;0.984;2022-09-01T06:18:44;100985.87;;;19.03;51.66
42411;BME280;28056;51.112;0.984;2022-09-01T06:21:12;100988.74;;;19.00;51.51
42411;BME280;28056;51.112;0.984;2022-09-01T06:23:40;100986.83;;;18.31;52.45
42411;BME280;28056;51.112;0.984;2022-09-01T06:26:14;100986.54;;;18.54;53.15
42411;BME280;28056;51.112;0.984;2022-09-01T06:28:42;100991.60;;;18.32;53.03
42411;BME280;28056;51.112;0.984;2022-09-01T06:31:09;100992.29;;;19.45;50.98
42411;BME280;28056;51.112;0.984;2022-09-01T06:33:37;100990.45;;;18.77;52.57
42411;BME280;28056;51.112;0.984;2022-09-01T06:36:06;100992.48;;;18.58;52.56
42411;BME280;28056;51.112;0.984;2022-09-01T06:38:34;100990.57;;;18.96;52.07
42411;BME280;28056;51.112;0.984;2022-09-01T06:41:03;100990.27;;;19.69;50.03
42411;BME280;28056;51.112;0.984;2022-09-01T06:43:31;100983.79;;;18.83;51.60
42411;BME280;28056;51.112;0.984;2022-09-01T06:46:01;100985.66;;;19.51;50.60
42411;BME280;28056;51.112;0.984;2022-09-01T06:48:28;100982.94;;;19.46;50.74
42411;BME280;28056;51.112;0.984;2022-09-01T06:50:59;100985.93;;;19.83;50.61
42411;BME280;28056;51.112;0.984;2022-09-01T06:53:27;100990.98;;;20.14;49.40
42411;BME280;28056;51.112;0.984;2022-09-01T06:55:54;100990.67;;;19.28;51.37
42411;BME280;28056;51.112;0.984;2022-09-01T06:58:22;100993.94;;;20.23;49.97
42411;BME280;28056;51.112;0.984;2022-09-01T07:00:51;100993.21;;;20.79;48.36
42411;BME280;28056;51.112;0.984;2022-09-01T07:03:19;100994.09;;;19.59;50.62
42411;BME280;28056;51.112;0.984;2022-09-01T07:05:47;100997.93;;;19.69;49.92
42411;BME280;28056;51.112;0.984;2022-09-01T07:08:15;101003.45;;;19.85;50.17
42411;BME280;28056;51.112;0.984;2022-09-01T07:10:45;101000.33;;;20.06;49.84
42411;BME280;28056;51.112;0.984;2022-09-01T07:13:16;100993.49;;;20.41;49.53
42411;BME280;28056;51.112;0.984;2022-09-01T07:15:43;100997.77;;;20.22;48.87
42411;BME280;28056;51.112;0.984;2022-09-01T07:18:11;100999.94;;;20.28;48.51
42411;BME280;28056;51.112;0.984;2022-09-01T07:20:40;101003.87;;;19.72;50.22
42411;BME280;28056;51.112;0.984;2022-09-01T07:23:08;101012.90;;;20.52;49.29
42411;BME280;28056;51.112;0.984;2022-09-01T07:25:38;101010.04;;;20.67;49.19
42411;BME280;28056;51.112;0.984;2022-09-01T07:28:07;101015.93;;;19.85;50.07
42411;BME280;28056;51.112;0.984;2022-09-01T07:30:39;101017.99;;;20.75;48.76
42411;BME280;28056;51.112;0.984;2022-09-01T07:33:07;101021.92;;;19.72;49.35
42411;BME280;28056;51.112;0.984;2022-09-01T07:35:37;101028.50;;;21.61;46.49
42411;BME280;28056;51.112;0.984;2022-09-01T07:38:04;101020.36;;;19.78;49.52
42411;BME280;28056;51.112;0.984;2022-09-01T07:40:31;101022.30;;;21.17;47.70
42411;BME280;28056;51.112;0.984;2022-09-01T07:42:59;101029.77;;;20.98;46.58
42411;BME280;28056;51.112;0.984;2022-09-01T07:45:26;101022.86;;;21.32;46.27
42411;BME280;28056;51.112;0.984;2022-09-01T07:47:55;101026.09;;;21.64;45.71
42411;BME280;28056;51.112;0.984;2022-09-01T07:50:23;101028.98;;;21.10;46.64
42411;BME280;28056;51.112;0.984;2022-09-01T07:52:50;101029.75;;;20.89;46.95
42411;BME280;28056;51.112;0.984;2022-09-01T07:55:18;101031.78;;;21.14;46.65
42411;BME280;28056;51.112;0.984;2022-09-01T07:57:45;101032.10;;;20.84;46.81
42411;BME280;28056;51.112;0.984;2022-09-01T08:00:15;101037.25;;;21.88;45.46
42411;BME280;28056;51.112;0.984;2022-09-01T08:02:42;101034.24;;;21.57;45.43
42411;BME280;28056;51.112;0.984;2022-09-01T08:05:12;101040.04;;;21.38;44.89
42411;BME280;28056;51.112;0.984;2022-09-01T08:07:40;101041.45;;;20.79;45.75
42411;BME280;28056;51.112;0.984;2022-09-01T08:10:08;101046.17;;;21.87;44.33
42411;BME280;28056;51.112;0.984;2022-09-01T08:12:36;101046.25;;;21.63;45.02
42411;BME280;28056;51.112;0.984;2022-09-01T08:15:05;101038.36;;;20.40;46.50
42411;BME280;28056;51.112;0.984;2022-09-01T08:17:36;101039.79;;;20.48;46.58
42411;BME280;28056;51.112;0.984;2022-09-01T08:20:04;101034.12;;;20.37;46.30
42411;BME280;28056;51.112;0.984;2022-09-01T08:22:32;101038.97;;;20.35;46.75
42411;BME280;28056;51.112;0.984;2022-09-01T08:24:59;101043.80;;;21.16;45.65
42411;BME280;28056;51.112;0.984;2022-09-01T08:27:27;101044.17;;;21.10;46.24
42411;BME280;28056;51.112;0.984;2022-09-01T08:29:54;101043.63;;;20.59;46.39
42411;BME280;28056;51.112;0.984;2022-09-01T08:32:22;101048.31;;;22.15;44.43
42411;BME280;28056;51.112;0.984;2022-09-01T08:34:49;101043.22;;;21.62;43.97
42411;BME280;28056;51.112;0.984;2022-09-01T08:37:17;101043.54;;;22.34;43.18
42411;BME280;28056;51.112;0.984;2022-09-01T08:39:44;101041.87;;;21.28;44.00
42411;BME280;28056;51.112;0.984;2022-09-01T08:42:17;101043.69;;;21.65;42.53
42411;BME280;28056;51.112;0.984;2022-09-01T08:44:53;101036.05;;;22.44;42.11
42411;BME280;28056;51.112;0.984;2022-09-01T08:47:24;101035.33;;;22.81;41.65
42411;BME280;28056;51.112;0.984;2022-09-01T08:49:52;101033.67;;;22.96;41.08
42411;BME280;28056;51.112;0.984;2022-09-01T08:52:25;101040.42;;;22.08;42.15
42411;BME280;28056;51.112;0.984;2022-09-01T08:54:57;101033.01;;;22.60;40.90
42411;BME280;28056;51.112;0.984;2022-09-01T08:57:31;101031.70;;;23.02;39.83
42411;BME280;28056;51.112;0.984;2022-09-01T08:59:59;101029.37;;;23.22;39.84
42411;BME280;28056;51.112;0.984;2022-09-01T09:02:50;101028.87;;;23.71;38.39
42411;BME280;28056;51.112;0.984;2022-09-01T09:05:38;101038.27;;;24.83;37.40
42411;BME280;28056;51.112;0.984;2022-09-01T09:08:30;101028.83;;;23.81;38.08
42411;BME280;28056;51.112;0.984;2022-09-01T09:11:22;101027.51;;;23.96;38.40
42411;BME280;28056;51.112;0.984;2022-09-01T09:14:09;101022.44;;;24.09;38.06
42411;BME280;28056;51.112;0.984;2022-09-01T09:16:52;101025.71;;;23.64;38.10
42411;BME280;28056;51.112;0.984;2022-09-01T09:19:33;101026.60;;;23.50;38.00
42411;BME280;28056;51.112;0.984;2022-09-01T09:22:15;101025.63;;;25.05;36.30
42411;BME280;28056;51.112;0.984;2022-09-01T09:24:56;101020.96;;;24.75;36.71
42411;BME280;28056;51.112;0.984;2022-09-01T09:27:38;101021.84;;;25.33;35.75
42411;BME280;28056;51.112;0.984;2022-09-01T09:30:19;101015.45;;;24.62;35.79
42411;BME280;28056;51.112;0.984;2022-09-01T09:33:00;101017.90;;;24.43;36.35
42411;BME280;28056;51.112;0.984;2022-09-01T09:35:39;101015.27;;;23.86;37.53
42411;BME280;28056;51.112;0.984;2022-09-01T09:38:43;101013.25;;;24.21;36.67
42411;BME280;28056;51.112;0.984;2022-09-01T09:41:22;101013.54;;;24.20;36.53
42411;BME280;28056;51.112;0.984;2022-09-01T09:44:04;101009.89;;;23.82;37.19
42411;BME280;28056;51.112;0.984;2022-09-01T09:46:43;101007.12;;;24.26;36.20
42411;BME280;28056;51.112;0.984;2022-09-01T09:49:24;101001.99;;;23.34;37.35
42411;BME280;28056;51.112;0.984;2022-09-01T09:52:16;101004.72;;;23.51;37.90
42411;BME280;28056;51.112;0.984;2022-09-01T09:55:22;101005.90;;;23.38;38.73
42411;BME280;28056;51.112;0.984;2022-09-01T09:58:08;101009.86;;;24.19;37.56
42411;BME280;28056;51.112;0.984;2022-09-01T10:01:05;101010.86;;;23.84;36.73
42411;BME280;28056;51.112;0.984;2022-09-01T10:03:47;101009.60;;;23.68;37.27
42411;BME280;28056;51.112;0.984;2022-09-01T10:06:35;101008.74;;;23.26;38.03
42411;BME280;28056;51.112;0.984;2022-09-01T10:09:32;101005.06;;;24.56;35.92
42411;BME280;28056;51.112;0.984;2022-09-01T10:12:10;101003.95;;;24.02;37.47
42411;BME280;28056;51.112;0.984;2022-09-01T10:14:51;101002.65;;;24.77;35.82
42411;BME280;28056;51.112;0.984;2022-09-01T10:17:33;100999.94;;;24.44;36.91
42411;BME280;28056;51.112;0.984;2022-09-01T10:20:17;100999.74;;;24.80;35.90
42411;BME280;28056;51.112;0.984;2022-09-01T10:22:56;100997.21;;;23.34;37.05
42411;BME280;28056;51.112;0.984;2022-09-01T10:25:36;100990.76;;;23.60;37.17
42411;BME280;28056;51.112;0.984;2022-09-01T10:28:08;100994.50;;;23.44;36.74
42411;BME280;28056;51.112;0.984;2022-09-01T10:30:41;100986.94;;;23.73;37.09
42411;BME280;28056;51.112;0.984;2022-09-01T10:33:10;100987.17;;;23.54;37.00
42411;BME280;28056;51.112;0.984;2022-09-01T10:35:41;100988.28;;;23.91;37.10
42411;BME280;28056;51.112;0.984;2022-09-01T10:38:14;100986.56;;;23.97;36.17
42411;BME280;28056;51.112;0.984;2022-09-01T10:40:44;100981.26;;;24.53;36.17
42411;BME280;28056;51.112;0.984;2022-09-01T10:43:34;100981.33;;;23.35;36.99
42411;BME280;28056;51.112;0.984;2022-09-01T10:46:09;100978.62;;;23.81;36.97
42411;BME280;28056;51.112;0.984;2022-09-01T10:49:19;100978.68;;;23.63;36.64
42411;BME280;28056;51.112;0.984;2022-09-01T10:51:47;100980.75;;;24.28;36.33
42411;BME280;28056;51.112;0.984;2022-09-01T10:55:21;100976.26;;;24.43;35.42
42411;BME280;28056;51.112;0.984;2022-09-01T10:57:55;100971.20;;;24.75;36.11
42411;BME280;28056;51.112;0.984;2022-09-01T11:00:44;100977.78;;;25.13;35.16
42411;BME280;28056;51.112;0.984;2022-09-01T11:03:51;100971.93;;;25.04;35.11
42411;BME280;28056;51.112;0.984;2022-09-01T11:06:59;100968.85;;;24.89;35.78
42411;BME280;28056;51.112;0.984;2022-09-01T11:09:30;100966.22;;;25.53;33.69
42411;BME280;28056;51.112;0.984;2022-09-01T11:12:15;100960.63;;;25.15;35.08
42411;BME280;28056;51.112;0.984;2022-09-01T11:14:48;100970.10;;;25.18;34.21
42411;BME280;28056;51.112;0.984;2022-09-01T11:17:20;100960.19;;;23.63;35.95
42411;BME280;28056;51.112;0.984;2022-09-01T11:19:57;100965.68;;;24.95;35.95
42411;BME280;28056;51.112;0.984;2022-09-01T11:22:31;100957.45;;;25.31;34.11
42411;BME280;28056;51.112;0.984;2022-09-01T11:25:11;100957.31;;;26.21;33.16
42411;BME280;28056;51.112;0.984;2022-09-01T11:27:57;100957.08;;;27.41;32.43
42411;BME280;28056;51.112;0.984;2022-09-01T11:30:39;100956.36;;;27.86;31.39
42411;BME280;28056;51.112;0.984;2022-09-01T11:33:15;100954.08;;;27.71;30.72
42411;BME280;28056;51.112;0.984;2022-09-01T11:35:46;100954.52;;;26.66;31.04
42411;BME280;28056;51.112;0.984;2022-09-01T11:38:23;100949.35;;;27.02;30.82
42411;BME280;28056;51.112;0.984;2022-09-01T11:40:54;100956.99;;;25.81;32.19
42411;BME280;28056;51.112;0.984;2022-09-01T11:43:23;100957.71;;;25.25;32.62
42411;BME280;28056;51.112;0.984;2022-09-01T11:45:58;100955.37;;;24.19;34.29
42411;BME280;28056;51.112;0.984;2022-09-01T11:48:28;100953.73;;;25.31;33.27
42411;BME280;28056;51.112;0.984;2022-09-01T11:50:58;100956.39;;;27.12;31.91
42411;BME280;28056;51.112;0.984;2022-09-01T11:53:27;100956.43;;;26.42;31.83
42411;BME280;28056;51.112;0.984;2022-09-01T11:56:12;100947.39;;;25.51;32.81
42411;BME280;28056;51.112;0.984;2022-09-01T11:58:40;100952.91;;;26.89;32.83
42411;BME280;28056;51.112;0.984;2022-09-01T12:01:14;100945.74;;;26.36;32.02
42411;BME280;28056;51.112;0.984;2022-09-01T12:03:42;100944.62;;;24.63;33.71
42411;BME280;28056;51.112;0.984;2022-09-01T12:06:17;100943.46;;;25.91;33.02
42411;BME280;28056;51.112;0.984;2022-09-01T12:08:52;100939.62;;;25.77;33.16
42411;BME280;28056;51.112;0.984;2022-09-01T12:11:22;100937.18;;;27.10;32.79
42411;BME280;28056;51.112;0.984;2022-09-01T12:13:56;100941.23;;;27.37;31.26
42411;BME280;28056;51.112;0.984;2022-09-01T12:16:24;100947.27;;;26.52;31.43
42411;BME280;28056;51.112;0.984;2022-09-01T12:18:53;100944.46;;;27.18;31.46
42411;BME280;28056;51.112;0.984;2022-09-01T12:21:23;100943.49;;;26.79;32.64
42411;BME280;28056;51.112;0.984;2022-09-01T12:23:52;100941.58;;;25.28;33.67
42411;BME280;28056;51.112;0.984;2022-09-01T12:26:24;100939.61;;;25.01;34.85
42411;BME280;28056;51.112;0.984;2022-09-01T12:28:52;100938.61;;;26.83;34.16
42411;BME280;28056;51.112;0.984;2022-09-01T12:31:22;100940.64;;;26.51;33.19
42411;BME280;28056;51.112;0.984;2022-09-01T12:33:51;100937.08;;;27.15;32.34
42411;BME280;28056;51.112;0.984;2022-09-01T12:36:22;100936.58;;;26.83;32.62
42411;BME280;28056;51.112;0.984;2022-09-01T12:38:51;100937.05;;;27.23;31.37
42411;BME280;28056;51.112;0.984;2022-09-01T12:41:33;100938.39;;;27.15;32.04
42411;BME280;28056;51.112;0.984;2022-09-01T12:44:41;100941.30;;;26.48;33.88
42411;BME280;28056;51.112;0.984;2022-09-01T12:47:11;100938.11;;;25.86;35.04
42411;BME280;28056;51.112;0.984;2022-09-01T12:49:41;100937.65;;;25.44;34.68
42411;BME280;28056;51.112;0.984;2022-09-01T12:52:14;100934.63;;;26.16;33.97
42411;BME280;28056;51.112;0.984;2022-09-01T12:54:43;100934.58;;;25.73;34.37
42411;BME280;28056;51.112;0.984;2022-09-01T12:57:24;100931.98;;;26.75;33.90
42411;BME280;28056;51.112;0.984;2022-09-01T13:00:06;100931.88;;;26.52;34.34
42411;BME280;28056;51.112;0.984;2022-09-01T13:02:34;100930.31;;;26.50;33.61
42411;BME280;28056;51.112;0.984;2022-09-01T13:05:20;100924.75;;;26.73;33.24
42411;BME280;28056;51.112;0.984;2022-09-01T13:07:47;100927.42;;;26.14;34.13
42411;BME280;28056;51.112;0.984;2022-09-01T13:10:15;100921.40;;;27.33;33.68
42411;BME280;28056;51.112;0.984;2022-09-01T13:12:43;100919.97;;;27.16;32.67
42411;BME280;28056;51.112;0.984;2022-09-01T13:15:12;100918.62;;;27.85;31.43
42411;BME280;28056;51.112;0.984;2022-09-01T13:17:40;100923.69;;;27.38;32.83